This is the latest recevied weather packets stored in our database for station/object LRCL. If no packets are shown the sender has not sent any weather packets the latest 10 day(s).
| Time | Temp. | Humidity | Pressure | Rain* | Wind** | Luminosity | Snow |
|---|---|---|---|---|---|---|---|
| 1778052788 | 17.78° C | 49% | 1014 hPa | - | - | - | - |
| 1778051888 | 17.22° C | 49% | 1014 hPa | - | - | - | - |
| 1778050988 | 17.22° C | 49% | 1014 hPa | - | - | - | - |
| 1778050088 | 15° C | 51% | 1014 hPa | - | - | - | - |
| 1778049188 | 15° C | 51% | 1014 hPa | - | - | - | - |
| 1778048288 | 12.78° C | 59% | 1014 hPa | - | - | - | - |
| 1778047390 | 12.78° C | 59% | 1014 hPa | - | - | - | - |
| 1778046489 | 12.22° C | 63% | 1014 hPa | - | - | - | - |
| 1778045596 | 12.22° C | 63% | 1014 hPa | - | - | - | - |
| 1778044688 | 10° C | 71% | 1014 hPa | - | - | - | - |
| 1778043802 | 10° C | 71% | 1014 hPa | - | - | - | - |
| 1778042904 | 7.78° C | 76% | 1014 hPa | - | - | - | - |
| 1778041992 | 7.78° C | 76% | 1014 hPa | - | - | - | - |
| 1778041089 | 7.22° C | 81% | 1014 hPa | - | - | - | - |
| 1778040188 | 7.22° C | 81% | 1014 hPa | - | - | - | - |
| 1778039288 | 6.11° C | 87% | 1013 hPa | - | - | - | - |
| 1778038388 | 6.11° C | 87% | 1013 hPa | - | - | - | - |
| 1778037488 | 6.11° C | 87% | 1013 hPa | - | - | - | - |
| 1778036588 | 6.11° C | 87% | 1013 hPa | - | - | - | - |
| 1778035688 | 7.22° C | 87% | 1013 hPa | - | - | - | - |
| 1778034788 | 7.22° C | 87% | 1013 hPa | - | - | - | - |
| 1778033888 | 7.22° C | 81% | 1013 hPa | - | - | - | - |
| 1778032988 | 7.22° C | 81% | 1013 hPa | - | - | - | - |
| 1778032088 | 7.78° C | 76% | 1013 hPa | - | - | - | - |
| 1778031188 | 7.78° C | 76% | 1013 hPa | - | - | - | - |
* Rain since midnight (hover to see other rain measurements)
** Current wind speed in m/s (hover to see current wind gust speed)